createdAt,value
2023-03-12T00:02:40.050Z,-1.52
2023-03-12T00:07:40.714Z,-1.60
2023-03-12T00:12:41.597Z,-1.64
2023-03-12T00:17:43.659Z,-1.59
2023-03-12T00:22:44.364Z,-1.53
2023-03-12T00:27:45.082Z,-1.55
2023-03-12T00:32:47.160Z,-1.30
2023-03-12T00:37:47.871Z,-1.35
2023-03-12T00:42:48.518Z,-1.19
2023-03-12T00:47:50.543Z,-1.28
2023-03-12T00:52:51.232Z,-1.31
2023-03-12T00:57:51.920Z,-1.33
2023-03-12T01:02:53.976Z,-0.99
2023-03-12T01:07:54.644Z,-1.03
2023-03-12T01:12:55.332Z,-0.97
2023-03-12T01:17:57.359Z,-1.02
2023-03-12T01:22:58.150Z,-1.09
2023-03-12T01:27:58.964Z,-1.31
2023-03-12T01:33:01.034Z,-1.22
2023-03-12T01:38:01.705Z,-1.18
2023-03-12T01:43:26.775Z,-1.19
2023-03-12T01:48:33.560Z,-1.26
2023-03-12T01:53:35.274Z,-1.24
2023-03-12T01:58:39.268Z,-1.32
2023-03-12T02:03:42.077Z,-1.40
2023-03-12T02:08:46.644Z,-1.48
2023-03-12T02:13:47.678Z,-1.22
2023-03-12T02:18:53.658Z,-1.19
2023-03-12T02:24:02.770Z,-1.26
2023-03-12T02:29:10.136Z,-1.25
2023-03-12T02:34:11.222Z,-1.23
2023-03-12T02:39:12.987Z,-1.28
2023-03-12T02:44:19.187Z,-1.35
2023-03-12T02:49:25.541Z,-1.32
2023-03-12T02:54:27.191Z,-1.39
2023-03-12T02:59:29.449Z,-1.45
2023-03-12T03:04:34.796Z,-1.46
2023-03-12T03:09:35.854Z,-1.45
2023-03-12T03:14:38.062Z,-1.58
2023-03-12T03:19:38.804Z,-1.58
2023-03-12T03:24:39.487Z,-1.67
2023-03-12T03:29:42.125Z,-1.64
2023-03-12T03:34:42.893Z,-1.69
2023-03-12T03:39:43.964Z,-1.77
2023-03-12T03:44:47.006Z,-1.80
2023-03-12T03:49:48.124Z,-1.76
2023-03-12T03:54:49.552Z,-1.68
2023-03-12T03:59:51.682Z,-1.61
2023-03-12T04:04:52.815Z,-1.47
2023-03-12T04:09:53.584Z,-1.51
2023-03-12T04:14:55.613Z,-1.62
2023-03-12T04:19:56.402Z,-1.50
2023-03-12T04:24:57.769Z,-1.50
2023-03-12T04:30:00.197Z,-1.52
2023-03-12T04:35:01.124Z,-1.66
2023-03-12T04:40:02.502Z,-1.69
2023-03-12T04:45:06.362Z,-1.74
2023-03-12T04:50:09.058Z,-1.85
2023-03-12T04:55:10.390Z,-1.80
2023-03-12T05:00:14.034Z,-1.94
2023-03-12T05:05:16.709Z,-1.83
2023-03-12T05:10:17.677Z,-1.67
2023-03-12T05:15:20.066Z,-1.85
2023-03-12T05:20:21.175Z,-1.77
2023-03-12T05:25:22.416Z,-1.75
2023-03-12T05:30:24.698Z,-1.69
2023-03-12T05:35:25.711Z,-1.84
2023-03-12T05:40:26.461Z,-1.79
2023-03-12T05:45:28.642Z,-1.73
2023-03-12T05:50:30.971Z,-1.78
2023-03-12T05:55:35.037Z,-1.75
2023-03-12T06:00:38.226Z,-1.78
2023-03-12T06:05:40.677Z,-1.89
2023-03-12T06:10:41.433Z,-1.78
2023-03-12T06:15:43.605Z,-1.63
2023-03-12T06:20:44.388Z,-1.73
2023-03-12T06:25:45.994Z,-1.56
2023-03-12T06:30:48.888Z,-1.44
2023-03-12T06:35:49.681Z,-1.27
2023-03-12T06:40:58.263Z,-1.17
2023-03-12T06:46:01.602Z,-1.00
2023-03-12T06:51:02.321Z,-0.90
2023-03-12T06:56:03.511Z,-0.77
2023-03-12T07:01:06.532Z,-0.59
2023-03-12T07:06:14.974Z,-0.50
2023-03-12T07:11:16.249Z,-0.22
2023-03-12T07:16:18.335Z,0.02
2023-03-12T07:21:22.843Z,0.21
2023-03-12T07:26:23.552Z,0.53
2023-03-12T07:31:25.638Z,0.76
2023-03-12T07:36:26.468Z,0.98
2023-03-12T07:41:27.279Z,1.19
2023-03-12T07:46:29.328Z,1.54
2023-03-12T07:51:30.249Z,1.91
2023-03-12T07:56:30.993Z,1.93
2023-03-12T08:01:33.274Z,2.23
2023-03-12T08:06:33.939Z,2.52
2023-03-12T08:11:35.596Z,2.75
2023-03-12T08:16:37.609Z,2.81
2023-03-12T08:21:38.296Z,2.93
2023-03-12T08:26:39.072Z,3.04
2023-03-12T08:31:53.803Z,3.33
2023-03-12T08:37:02.936Z,3.66
2023-03-12T08:42:03.986Z,3.82
2023-03-12T08:47:06.322Z,4.28
2023-03-12T08:52:07.029Z,4.75
2023-03-12T08:57:07.797Z,4.80
2023-03-12T09:02:12.096Z,5.14
2023-03-12T09:07:14.116Z,5.06
2023-03-12T09:12:14.812Z,5.45
2023-03-12T09:17:23.444Z,5.57
2023-03-12T09:22:44.515Z,5.13
2023-03-12T09:27:48.711Z,5.02
2023-03-12T09:32:50.692Z,5.08
2023-03-12T09:37:51.647Z,4.88
2023-03-12T09:42:56.121Z,4.77
2023-03-12T09:48:00.256Z,4.94
2023-03-12T09:53:09.821Z,4.98
2023-03-12T09:58:14.950Z,4.80
2023-03-12T10:03:43.643Z,4.94
2023-03-12T10:08:58.877Z,4.88
2023-03-12T10:14:23.374Z,4.92
2023-03-12T10:19:40.124Z,4.81
2023-03-12T10:24:55.803Z,5.04
2023-03-12T10:29:56.704Z,5.82
2023-03-12T10:35:01.747Z,6.06
2023-03-12T10:40:02.885Z,5.84
2023-03-12T10:45:20.480Z,5.88
2023-03-12T10:50:24.637Z,5.74
2023-03-12T10:55:29.369Z,6.17
2023-03-12T11:00:33.059Z,6.93
2023-03-12T11:05:51.440Z,7.02
2023-03-12T11:10:52.466Z,6.96
2023-03-12T11:15:54.774Z,7.91
2023-03-12T11:20:58.811Z,7.62
2023-03-12T11:26:03.033Z,7.08
2023-03-12T11:31:06.155Z,7.45
2023-03-12T11:36:22.881Z,7.82
2023-03-12T11:41:43.288Z,7.53
2023-03-12T11:46:56.826Z,7.89
2023-03-12T11:52:07.178Z,7.76
2023-03-12T11:57:20.630Z,8.11
2023-03-12T12:02:41.828Z,8.31
2023-03-12T12:07:54.098Z,7.69
2023-03-12T12:13:05.371Z,8.31
2023-03-12T12:18:25.658Z,8.03
2023-03-12T12:23:43.720Z,7.89
2023-03-12T12:29:06.477Z,7.76
2023-03-12T12:34:22.497Z,8.59
2023-03-12T12:39:33.260Z,8.45
2023-03-12T12:44:37.972Z,8.21
2023-03-12T12:49:45.022Z,8.18
2023-03-12T12:54:56.384Z,7.34
2023-03-12T13:00:14.230Z,7.11
2023-03-12T13:05:20.847Z,7.74
2023-03-12T13:10:48.933Z,7.44
2023-03-12T13:16:18.641Z,7.38
2023-03-12T13:21:28.722Z,7.78
2023-03-12T13:26:39.581Z,7.54
2023-03-12T13:31:41.830Z,7.27
2023-03-12T13:36:46.076Z,7.34
2023-03-12T13:41:50.602Z,7.06
2023-03-12T13:47:01.455Z,7.24
2023-03-12T13:52:17.762Z,7.34
2023-03-12T13:57:41.261Z,7.01
2023-03-12T14:02:49.642Z,7.27
2023-03-12T14:08:14.702Z,7.11
2023-03-12T14:13:29.039Z,7.15
2023-03-12T14:18:35.022Z,6.68
2023-03-12T14:23:39.331Z,6.53
2023-03-12T14:28:43.105Z,6.31
2023-03-12T14:33:53.400Z,6.26
2023-03-12T14:39:01.868Z,6.28
2023-03-12T14:44:19.794Z,6.13
2023-03-12T14:49:21.836Z,5.99
2023-03-12T14:54:25.064Z,5.49
2023-03-12T14:59:31.317Z,5.49
2023-03-12T15:04:35.373Z,5.29
2023-03-12T15:09:38.026Z,4.92
2023-03-12T15:14:43.663Z,4.79
2023-03-12T15:19:45.118Z,4.68
2023-03-12T15:24:46.583Z,4.41
2023-03-12T15:29:49.956Z,4.35
2023-03-12T15:34:51.228Z,4.35
2023-03-12T15:39:54.713Z,5.17
2023-03-12T15:44:58.693Z,4.73
2023-03-12T15:50:03.585Z,4.72
2023-03-12T15:55:22.485Z,4.86
2023-03-12T16:00:27.805Z,4.86
2023-03-12T16:05:31.776Z,4.97
2023-03-12T16:10:37.367Z,4.91
2023-03-12T16:15:40.060Z,4.79
2023-03-12T16:20:41.197Z,4.86
2023-03-12T16:25:44.573Z,4.74
2023-03-12T16:30:46.917Z,4.86
2023-03-12T16:35:48.025Z,4.79
2023-03-12T16:40:50.742Z,4.81
2023-03-12T16:45:54.222Z,4.78
2023-03-12T16:50:57.992Z,4.82
2023-03-12T16:56:01.095Z,4.95
2023-03-12T17:01:03.310Z,4.91
2023-03-12T17:06:07.426Z,4.88
2023-03-12T17:11:16.250Z,4.82
2023-03-12T17:16:18.532Z,4.82
2023-03-12T17:21:20.321Z,4.78
2023-03-12T17:26:21.043Z,4.81
2023-03-12T17:31:26.886Z,4.87
2023-03-12T17:36:27.614Z,4.91
2023-03-12T17:41:28.347Z,5.51
2023-03-12T17:46:30.784Z,5.49
2023-03-12T17:51:31.601Z,5.43
2023-03-12T17:56:32.264Z,5.43
2023-03-12T18:01:34.530Z,5.46
2023-03-12T18:06:35.213Z,5.68
2023-03-12T18:11:35.930Z,5.63
2023-03-12T18:16:38.426Z,5.72
2023-03-12T18:21:39.146Z,5.72
2023-03-12T18:26:39.887Z,5.77
2023-03-12T18:31:41.982Z,5.82
2023-03-12T18:36:42.932Z,5.85
2023-03-12T18:41:43.695Z,5.93
2023-03-12T18:46:47.003Z,5.89
2023-03-12T18:51:48.262Z,5.95
2023-03-12T18:56:49.219Z,6.06
2023-03-12T19:01:51.390Z,6.07
2023-03-12T19:06:52.219Z,6.32
2023-03-12T19:11:52.910Z,6.47
2023-03-12T19:16:54.987Z,6.59
2023-03-12T19:21:57.335Z,6.60
2023-03-12T19:26:58.086Z,6.54
2023-03-12T19:32:00.217Z,6.48
2023-03-12T19:37:00.963Z,6.75
2023-03-12T19:42:01.662Z,6.85
2023-03-12T19:47:06.989Z,6.85
2023-03-12T19:52:07.686Z,7.08
2023-03-12T19:57:08.416Z,7.09
2023-03-12T20:02:13.292Z,7.28
2023-03-12T20:07:14.040Z,7.42
2023-03-12T20:12:14.773Z,7.42
2023-03-12T20:17:17.134Z,7.47
2023-03-12T20:22:17.865Z,7.44
2023-03-12T20:27:18.603Z,7.45
2023-03-12T20:32:20.732Z,7.57
2023-03-12T20:37:21.480Z,7.46
2023-03-12T20:42:22.176Z,7.50
2023-03-12T20:47:24.991Z,7.52
2023-03-12T20:52:25.846Z,7.51
2023-03-12T20:57:26.739Z,7.64
2023-03-12T21:02:28.926Z,7.76
2023-03-12T21:07:29.718Z,7.72
2023-03-12T21:12:30.414Z,7.91
2023-03-12T21:17:33.697Z,7.77
2023-03-12T21:22:34.432Z,7.75
2023-03-12T21:27:48.038Z,7.72
2023-03-12T21:32:52.265Z,8.01
2023-03-12T21:37:54.421Z,7.91
2023-03-12T21:42:55.174Z,8.04
2023-03-12T21:47:57.180Z,7.96
2023-03-12T21:52:57.919Z,8.13
2023-03-12T21:57:58.706Z,8.11
2023-03-12T22:03:00.737Z,8.05
2023-03-12T22:08:01.470Z,8.04
2023-03-12T22:13:02.169Z,8.23
2023-03-12T22:18:04.385Z,8.33
2023-03-12T22:23:05.128Z,8.37
2023-03-12T22:28:05.997Z,8.46
2023-03-12T22:33:08.013Z,8.28
2023-03-12T22:38:08.766Z,8.32
2023-03-12T22:43:09.546Z,8.42
2023-03-12T22:48:11.597Z,8.40
2023-03-12T22:53:12.223Z,8.38
2023-03-12T22:58:13.050Z,8.59
2023-03-12T23:03:15.128Z,8.59
2023-03-12T23:08:15.786Z,8.57
2023-03-12T23:13:16.479Z,8.60
2023-03-12T23:18:19.003Z,8.60
2023-03-12T23:23:19.645Z,8.56
2023-03-12T23:28:20.282Z,8.64
2023-03-12T23:33:22.320Z,8.57
2023-03-12T23:38:23.149Z,8.59
2023-03-12T23:43:24.040Z,8.70
2023-03-12T23:48:26.512Z,8.68
2023-03-12T23:53:27.176Z,8.71
2023-03-12T23:58:29.206Z,8.62
